アスタナ の空港の天気 - METARとTAF

アスタナ国際空港 ( UACC / TSE ) - カザフスタン アスタナ
飛行場実況気象(Metar)
観測時間07/17 15:30 QYZT (07/17 09:30 UTC)
風向・風速東北東 6m/s
視程10km以上
天気現象
少しの雲 雲底高度 910m
気温27℃
湿度30%
気圧1012hPa
METARUACC 170930Z 07006MPS 040V100 9999 FEW030 27/08 Q1012 R04/0///70 NOSIG RMK QFE728/0970
過去の天気等 Google飛行場航空写真 Wunderground天気予報

過去48時間のMETAR

飛行場予報(TAF)
発表時間: 7/17 11:00 QYZT (7/17 05:00 UTC)
予報対象時間: 17日12時 QYZT ~ 18日12時 QYZT
風向・風速北東 6m/s
視程10km以上
全天の4割程度の雲 雲底高度 1220m
全天の8割程度の雲 雲底高度 3050m
17日12時 QYZT ~ 17日18時 QYZT に一時的に
風向・風速北東 6m/s 瞬間風速 11m/s
全天の4割程度の積乱雲 雲底高度 1220m
TAF UACC 170500Z 1706/1806 04006MPS 9999 SCT040 BKN100 TX27/1710Z TN15/1723Z
TEMPO 1706/1712 05006G11MPS SCT040CB